Time;durP1;ratioP1;P1;durP2;ratioP2;P2;SDS_P1;SDS_P2;PMS_P1;PMS_P2;Temp;Humidity;BMP_temperature;BMP_pressure;BME280_temperature;BME280_humidity;BME280_pressure;Samples;Min_cycle;Max_cycle;Signal;HPM_P1;HPM_P2
2023/08/26 00:00:35;;;;;;;;;;;;;;;;;;5030988;28;19924;-69
2023/08/26 00:03:01;;;;;;;;;;;;;;;;;;5031119;28;19905;-69
2023/08/26 00:05:27;;;;;;;;;;;;;;;;;;5031220;28;20436;-69
2023/08/26 00:07:53;;;;;;;;;;;;;;;;;;5030508;28;20352;-69
2023/08/26 00:10:19;;;;;;;;;;;;;;;;;;5031145;28;19913;-69
2023/08/26 00:12:45;;;;;;;;;;;;;;;;;;5031012;28;20384;-69
2023/08/26 00:15:11;;;;;;;;;;;;;;;;;;5030896;28;19917;-69
2023/08/26 00:17:37;;;;;;;;;;;;;;;;;;5030351;28;19939;-70
2023/08/26 00:20:05;;;;;;;;;;;;;;;;;;5028343;28;19909;-70
2023/08/26 00:22:31;;;;;;;;;;;;;;;;;;5031004;28;19945;-69
2023/08/26 00:24:57;;;;;;;;;;;;;;;;;;5013129;28;20372;-70
2023/08/26 00:27:23;;;;;;;;;;;;;;;;;;5030401;28;19917;-70
2023/08/26 00:29:49;;;;;;;;;;;;;;;;;;5030862;28;19905;-70
2023/08/26 00:32:15;;;;;;;;;;;;;;;;;;5031171;28;19928;-69
2023/08/26 00:34:43;;;;;;;;;;;;;;;;;;5032252;28;19913;-70
2023/08/26 00:37:09;;;;;;;;;;;;;;;;;;5032980;28;19905;-70
2023/08/26 00:39:35;;;;;;;;;;;;;;;;;;5034924;28;19916;-70
2023/08/26 00:42:01;;;;;;;;;;;;;;;;;;5036485;28;19909;-70
2023/08/26 00:44:27;;;;;;;;;;;;;;;;;;5036342;28;19905;-71
2023/08/26 00:46:53;;;;;;;;;;;;;;;;;;5018406;28;19912;-70
2023/08/26 00:49:19;;;;;;;;;;;;;;;;;;5034833;28;20043;-69
2023/08/26 00:51:44;;;;;;;;;;;;;;;;;;5034801;28;19958;-70
2023/08/26 00:54:10;;;;;;;;;;;;;;;;;;5034477;28;19996;-70
2023/08/26 00:56:36;;;;;;;;;;;;;;;;;;5034430;28;20299;-70
2023/08/26 00:59:02;;;;;;;;;;;;;;;;;;5033665;28;20304;-70
2023/08/26 01:01:28;;;;;;;;;;;;;;;;;;5034469;28;19955;-70
2023/08/26 01:03:54;;;;;;;;;;;;;;;;;;5034812;28;19952;-70
2023/08/26 01:06:20;;;;;;;;;;;;;;;;;;5032670;28;19942;-70
2023/08/26 01:08:46;;;;;;;;;;;;;;;;;;5032526;28;20392;-70
2023/08/26 01:11:12;;;;;;;;;;;;;;;;;;5017608;28;19920;-71
2023/08/26 01:13:37;;;;;;;;;;;;;;;;;;5034095;28;19995;-70
2023/08/26 01:16:03;;;;;;;;;;;;;;;;;;5033981;28;19920;-69
2023/08/26 01:18:29;;;;;;;;;;;;;;;;;;5015576;28;19944;-69
2023/08/26 01:20:55;;;;;;;;;;;;;;;;;;5034057;28;19905;-69
2023/08/26 01:23:21;;;;;;;;;;;;;;;;;;5031633;28;19913;-69
2023/08/26 01:25:47;;;;;;;;;;;;;;;;;;5034030;28;19955;-69
2023/08/26 01:28:13;;;;;;;;;;;;;;;;;;5033120;28;19905;-69
2023/08/26 01:30:39;;;;;;;;;;;;;;;;;;5033811;28;19905;-69
2023/08/26 01:33:05;;;;;;;;;;;;;;;;;;5033792;28;19905;-69
2023/08/26 01:35:31;;;;;;;;;;;;;;;;;;5033583;28;19936;-69
2023/08/26 01:37:57;;;;;;;;;;;;;;;;;;5032845;28;19962;-70
2023/08/26 01:40:23;;;;;;;;;;;;;;;;;;5033592;28;19992;-70
2023/08/26 01:42:49;;;;;;;;;;;;;;;;;;5015612;28;20391;-70
2023/08/26 01:45:15;;;;;;;;;;;;;;;;;;5033529;28;20252;-70
2023/08/26 01:47:40;;;;;;;;;;;;;;;;;;5032750;28;19962;-70
2023/08/26 01:50:06;;;;;;;;;;;;;;;;;;5015531;28;19959;-69
2023/08/26 01:52:32;;;;;;;;;;;;;;;;;;5033358;28;19909;-69
2023/08/26 01:54:58;;;;;;;;;;;;;;;;;;5033223;28;20007;-69
2023/08/26 01:57:24;;;;;;;;;;;;;;;;;;5030966;28;19952;-71
2023/08/26 01:59:50;;;;;;;;;;;;;;;;;;5032986;28;19920;-70
2023/08/26 02:02:16;;;;;;;;;;;;;;;;;;5033150;28;20039;-69
2023/08/26 02:04:42;;;;;;;;;;;;;;;;;;5033117;28;19952;-69
2023/08/26 02:07:08;;;;;;;;;;;;;;;;;;5032903;28;19995;-70
2023/08/26 02:09:34;;;;;;;;;;;;;;;;;;5030053;28;19909;-69
2023/08/26 02:12:00;;;;;;;;;;;;;;;;;;5031420;28;19912;-70
2023/08/26 02:14:26;;;;;;;;;;;;;;;;;;5032748;28;20372;-69
2023/08/26 02:16:51;;;;;;;;;;;;;;;;;;5032578;28;19909;-70
2023/08/26 02:19:17;;;;;;;;;;;;;;;;;;5032284;28;19912;-70
2023/08/26 02:21:43;;;;;;;;;;;;;;;;;;5032795;28;19975;-69
2023/08/26 02:24:09;;;;;;;;;;;;;;;;;;5032731;28;19905;-69
2023/08/26 02:26:35;;;;;;;;;;;;;;;;;;5032580;28;19913;-69
2023/08/26 02:29:01;;;;;;;;;;;;;;;;;;5031852;28;19909;-69
2023/08/26 02:31:27;;;;;;;;;;;;;;;;;;5032409;28;20416;-69
2023/08/26 02:33:53;;;;;;;;;;;;;;;;;;5032385;28;19909;-69
2023/08/26 02:36:19;;;;;;;;;;;;;;;;;;5032384;28;20428;-69
2023/08/26 02:38:45;;;;;;;;;;;;;;;;;;5031668;28;20365;-69
2023/08/26 02:41:11;;;;;;;;;;;;;;;;;;5032187;28;19932;-69
2023/08/26 02:43:37;;;;;;;;;;;;;;;;;;5014642;28;19909;-69
2023/08/26 02:46:03;;;;;;;;;;;;;;;;;;5032361;28;19905;-68
2023/08/26 02:48:29;;;;;;;;;;;;;;;;;;5031516;28;20368;-69
2023/08/26 02:50:55;;;;;;;;;;;;;;;;;;5032127;28;20392;-69
2023/08/26 02:53:22;;;;;;;;;;;;;;;;;;5032270;28;19909;-70
2023/08/26 02:55:48;;;;;;;;;;;;;;;;;;5032002;28;20436;-69
2023/08/26 02:58:14;;;;;;;;;;;;;;;;;;5031363;28;19935;-69
2023/08/26 03:00:40;;;;;;;;;;;;;;;;;;5031474;28;19920;-70
2023/08/26 03:03:06;;;;;;;;;;;;;;;;;;5032758;28;19904;-69
2023/08/26 03:05:32;;;;;;;;;;;;;;;;;;5032030;28;20288;-69
2023/08/26 03:07:58;;;;;;;;;;;;;;;;;;5031142;28;19931;-70
2023/08/26 03:10:24;;;;;;;;;;;;;;;;;;5031856;28;19909;-69
2023/08/26 03:12:50;;;;;;;;;;;;;;;;;;5031804;28;19905;-69
2023/08/26 03:15:16;;;;;;;;;;;;;;;;;;5031892;28;19962;-69
2023/08/26 03:17:41;;;;;;;;;;;;;;;;;;5032644;28;19905;-69
2023/08/26 03:20:08;;;;;;;;;;;;;;;;;;5032969;28;19905;-70
2023/08/26 03:22:34;;;;;;;;;;;;;;;;;;5032939;28;19936;-70
2023/08/26 03:25:00;;;;;;;;;;;;;;;;;;5032400;28;19971;-70
2023/08/26 03:27:26;;;;;;;;;;;;;;;;;;5030911;28;19912;-70
2023/08/26 03:29:52;;;;;;;;;;;;;;;;;;5031632;28;19905;-70
2023/08/26 03:32:18;;;;;;;;;;;;;;;;;;5032132;28;19904;-69
2023/08/26 03:34:44;;;;;;;;;;;;;;;;;;5032218;28;19963;-70
2023/08/26 03:37:10;;;;;;;;;;;;;;;;;;5031866;28;20369;-70
2023/08/26 03:39:36;;;;;;;;;;;;;;;;;;5031451;28;19956;-70
2023/08/26 03:42:02;;;;;;;;;;;;;;;;;;5031637;28;19959;-70
2023/08/26 03:44:28;;;;;;;;;;;;;;;;;;5031517;28;19905;-69
2023/08/26 03:46:54;;;;;;;;;;;;;;;;;;5031368;28;19905;-70
2023/08/26 03:49:20;;;;;;;;;;;;;;;;;;5030851;28;19996;-70
2023/08/26 03:51:46;;;;;;;;;;;;;;;;;;5031298;28;19937;-69
2023/08/26 03:54:12;;;;;;;;;;;;;;;;;;5031225;28;20586;-69
2023/08/26 03:56:38;;;;;;;;;;;;;;;;;;5031277;28;19909;-69
2023/08/26 03:59:04;;;;;;;;;;;;;;;;;;5030687;28;19905;-70
2023/08/26 04:01:31;;;;;;;;;;;;;;;;;;5031076;28;19912;-69
2023/08/26 04:03:56;;;;;;;;;;;;;;;;;;5031213;28;20368;-70
2023/08/26 04:06:22;;;;;;;;;;;;;;;;;;5031094;28;19909;-70
2023/08/26 04:08:48;;;;;;;;;;;;;;;;;;5030614;28;19909;-70
2023/08/26 04:11:16;;;;;;;;;;;;;;;;;;5031051;28;20104;-69
2023/08/26 04:13:42;;;;;;;;;;;;;;;;;;5035240;28;19975;-70
2023/08/26 04:16:08;;;;;;;;;;;;;;;;;;5035284;28;20381;-69
2023/08/26 04:18:34;;;;;;;;;;;;;;;;;;5034471;28;20253;-70
2023/08/26 04:21:00;;;;;;;;;;;;;;;;;;5034944;28;20117;-70
2023/08/26 04:23:26;;;;;;;;;;;;;;;;;;5035129;28;19909;-70
2023/08/26 04:25:52;;;;;;;;;;;;;;;;;;5035187;28;19983;-70
2023/08/26 04:28:18;;;;;;;;;;;;;;;;;;5034326;28;19915;-69
2023/08/26 04:30:44;;;;;;;;;;;;;;;;;;5035096;28;19909;-70
2023/08/26 04:33:10;;;;;;;;;;;;;;;;;;5034891;28;19905;-69
2023/08/26 04:35:35;;;;;;;;;;;;;;;;;;5034573;28;20300;-70
2023/08/26 04:38:02;;;;;;;;;;;;;;;;;;5034030;28;19912;-70
2023/08/26 04:40:27;;;;;;;;;;;;;;;;;;5034601;28;19913;-70
2023/08/26 04:42:53;;;;;;;;;;;;;;;;;;5034581;28;19905;-70
2023/08/26 04:45:19;;;;;;;;;;;;;;;;;;5034643;28;20288;-69
2023/08/26 04:47:46;;;;;;;;;;;;;;;;;;5033895;28;19904;-70
2023/08/26 04:50:12;;;;;;;;;;;;;;;;;;5034427;28;19901;-70
2023/08/26 04:52:39;;;;;;;;;;;;;;;;;;5034355;28;19905;-69
2023/08/26 04:55:05;;;;;;;;;;;;;;;;;;5034303;28;20465;-69
2023/08/26 04:57:31;;;;;;;;;;;;;;;;;;5033816;28;19994;-69
2023/08/26 04:59:57;;;;;;;;;;;;;;;;;;5034171;28;19913;-69
2023/08/26 05:02:23;;;;;;;;;;;;;;;;;;5034390;28;20007;-69
2023/08/26 05:04:50;;;;;;;;;;;;;;;;;;5034314;28;19905;-70
2023/08/26 05:07:16;;;;;;;;;;;;;;;;;;5033591;28;19912;-70
2023/08/26 05:09:42;;;;;;;;;;;;;;;;;;5034134;28;19909;-70
2023/08/26 05:12:08;;;;;;;;;;;;;;;;;;5034276;28;19984;-70
2023/08/26 05:14:34;;;;;;;;;;;;;;;;;;5034534;28;20374;-70
2023/08/26 05:17:00;;;;;;;;;;;;;;;;;;5034556;28;19929;-70
2023/08/26 05:19:26;;;;;;;;;;;;;;;;;;5034353;28;19916;-70
2023/08/26 05:21:52;;;;;;;;;;;;;;;;;;5034606;28;19987;-71
2023/08/26 05:24:17;;;;;;;;;;;;;;;;;;5034597;28;19999;-70
2023/08/26 05:26:43;;;;;;;;;;;;;;;;;;5034440;28;19905;-69
2023/08/26 05:29:09;;;;;;;;;;;;;;;;;;5033811;28;20003;-70
2023/08/26 05:31:35;;;;;;;;;;;;;;;;;;5033969;28;19916;-70
2023/08/26 05:34:01;;;;;;;;;;;;;;;;;;5034297;28;20011;-71
2023/08/26 05:36:27;;;;;;;;;;;;;;;;;;5034396;28;20387;-71
2023/08/26 05:38:53;;;;;;;;;;;;;;;;;;5033803;28;19901;-71
2023/08/26 05:41:19;;;;;;;;;;;;;;;;;;5034329;28;19916;-70
2023/08/26 05:43:45;;;;;;;;;;;;;;;;;;5034672;28;19901;-70
2023/08/26 05:46:11;;;;;;;;;;;;;;;;;;5034535;28;19948;-68
2023/08/26 05:48:36;;;;;;;;;;;;;;;;;;5033523;28;20723;-70
2023/08/26 05:51:02;;;;;;;;;;;;;;;;;;5033803;28;19905;-70
2023/08/26 05:53:28;;;;;;;;;;;;;;;;;;5035249;28;19908;-70
2023/08/26 05:55:54;;;;;;;;;;;;;;;;;;5036648;28;19916;-71
2023/08/26 05:58:20;;;;;;;;;;;;;;;;;;5034737;28;19905;-70
2023/08/26 06:00:46;;;;;;;;;;;;;;;;;;5033841;28;19963;-70
2023/08/26 06:03:12;;;;;;;;;;;;;;;;;;5033161;28;19916;-70
2023/08/26 06:05:38;;;;;;;;;;;;;;;;;;5033528;28;19905;-71
2023/08/26 06:08:04;;;;;;;;;;;;;;;;;;5032538;28;20399;-71
2023/08/26 06:10:31;;;;;;;;;;;;;;;;;;5032928;28;19927;-70
2023/08/26 06:12:57;;;;;;;;;;;;;;;;;;5033098;28;20339;-70
2023/08/26 06:15:23;;;;;;;;;;;;;;;;;;5032867;28;19920;-70
2023/08/26 06:17:49;;;;;;;;;;;;;;;;;;5032216;28;19909;-70
2023/08/26 06:20:15;;;;;;;;;;;;;;;;;;5032703;28;19975;-70
2023/08/26 06:22:42;;;;;;;;;;;;;;;;;;5015130;28;20032;-70
2023/08/26 06:25:08;;;;;;;;;;;;;;;;;;5015245;28;19905;-70
2023/08/26 06:27:33;;;;;;;;;;;;;;;;;;5032572;28;19905;-70
2023/08/26 06:30:03;;;;;;;;;;;;;;;;;;5033175;28;19905;-69
2023/08/26 06:32:28;;;;;;;;;;;;;;;;;;5032782;28;19963;-69
2023/08/26 06:34:54;;;;;;;;;;;;;;;;;;5014327;28;19948;-71
2023/08/26 06:37:20;;;;;;;;;;;;;;;;;;5031754;28;19952;-69
2023/08/26 06:39:47;;;;;;;;;;;;;;;;;;5032444;28;20000;-69
2023/08/26 06:42:12;;;;;;;;;;;;;;;;;;5032530;28;19944;-68
2023/08/26 06:44:38;;;;;;;;;;;;;;;;;;5014682;28;19940;-69
2023/08/26 06:47:04;;;;;;;;;;;;;;;;;;5032516;28;20434;-69
2023/08/26 06:49:30;;;;;;;;;;;;;;;;;;5032182;28;20065;-69
2023/08/26 06:51:56;;;;;;;;;;;;;;;;;;5032168;28;19912;-69
2023/08/26 06:54:22;;;;;;;;;;;;;;;;;;5032296;28;19916;-69
2023/08/26 06:56:48;;;;;;;;;;;;;;;;;;5014413;28;19905;-69
2023/08/26 06:59:14;;;;;;;;;;;;;;;;;;5031311;28;19905;-70
2023/08/26 07:01:40;;;;;;;;;;;;;;;;;;5032103;28;19990;-69
2023/08/26 07:04:06;;;;;;;;;;;;;;;;;;5032348;28;19905;-70
2023/08/26 07:06:32;;;;;;;;;;;;;;;;;;5032120;28;19905;-70
2023/08/26 07:08:58;;;;;;;;;;;;;;;;;;5031517;28;19959;-70
2023/08/26 07:11:24;;;;;;;;;;;;;;;;;;5031946;28;19913;-69
2023/08/26 07:13:49;;;;;;;;;;;;;;;;;;5031965;28;19905;-71
2023/08/26 07:16:15;;;;;;;;;;;;;;;;;;5031835;28;20293;-69
2023/08/26 07:18:42;;;;;;;;;;;;;;;;;;5031223;28;19995;-69
2023/08/26 07:21:07;;;;;;;;;;;;;;;;;;5031652;28;19912;-69
2023/08/26 07:23:33;;;;;;;;;;;;;;;;;;5031641;28;20100;-70
2023/08/26 07:25:59;;;;;;;;;;;;;;;;;;5031754;28;19959;-69
2023/08/26 07:28:25;;;;;;;;;;;;;;;;;;5031123;28;19951;-69
2023/08/26 07:30:51;;;;;;;;;;;;;;;;;;5031814;28;20510;-69
2023/08/26 07:33:17;;;;;;;;;;;;;;;;;;5031681;28;19928;-69
2023/08/26 07:35:43;;;;;;;;;;;;;;;;;;5031549;28;19909;-69
2023/08/26 07:38:09;;;;;;;;;;;;;;;;;;5031032;28;20028;-69
2023/08/26 07:40:35;;;;;;;;;;;;;;;;;;5031337;28;20368;-70
2023/08/26 07:43:01;;;;;;;;;;;;;;;;;;5031361;28;19919;-69
2023/08/26 07:45:26;;;;;;;;;;;;;;;;;;5031366;28;19963;-71
2023/08/26 07:47:52;;;;;;;;;;;;;;;;;;5030798;28;19905;-70
2023/08/26 07:50:18;;;;;;;;;;;;;;;;;;5013350;28;20515;-70
2023/08/26 07:52:44;;;;;;;;;;;;;;;;;;5031174;28;19911;-70
2023/08/26 07:55:10;;;;;;;;;;;;;;;;;;5031442;28;19909;-70
2023/08/26 07:57:36;;;;;;;;;;;;;;;;;;5030520;28;20300;-70
2023/08/26 08:00:02;;;;;;;;;;;;;;;;;;5030918;28;19974;-69
2023/08/26 08:02:28;;;;;;;;;;;;;;;;;;5031565;28;19932;-70
2023/08/26 08:04:55;;;;;;;;;;;;;;;;;;5031232;28;19912;-70
2023/08/26 08:07:21;;;;;;;;;;;;;;;;;;5030852;28;19916;-70
2023/08/26 08:09:46;;;;;;;;;;;;;;;;;;5030931;28;20288;-70
2023/08/26 08:12:14;;;;;;;;;;;;;;;;;;5028890;28;19908;-69
2023/08/26 08:14:40;;;;;;;;;;;;;;;;;;5031011;28;19940;-70
2023/08/26 08:17:06;;;;;;;;;;;;;;;;;;5031070;28;19913;-70
2023/08/26 08:19:32;;;;;;;;;;;;;;;;;;5030776;28;19905;-70
2023/08/26 08:21:58;;;;;;;;;;;;;;;;;;5031299;28;19955;-71
2023/08/26 08:24:24;;;;;;;;;;;;;;;;;;5031253;28;19995;-70
2023/08/26 08:26:50;;;;;;;;;;;;;;;;;;5013083;28;19905;-70
2023/08/26 08:29:15;;;;;;;;;;;;;;;;;;5032197;28;19969;-71
2023/08/26 08:31:41;;;;;;;;;;;;;;;;;;5033009;28;19936;-70
2023/08/26 08:34:07;;;;;;;;;;;;;;;;;;5032563;28;19915;-70
2023/08/26 08:36:33;;;;;;;;;;;;;;;;;;5032204;28;20377;-70
2023/08/26 08:38:59;;;;;;;;;;;;;;;;;;5030534;28;20002;-69
2023/08/26 08:41:25;;;;;;;;;;;;;;;;;;5030822;28;19905;-70
2023/08/26 08:43:51;;;;;;;;;;;;;;;;;;5031153;28;20369;-70
2023/08/26 08:46:17;;;;;;;;;;;;;;;;;;5031233;28;19905;-70
2023/08/26 08:48:43;;;;;;;;;;;;;;;;;;5009663;28;19913;-71
2023/08/26 08:51:09;;;;;;;;;;;;;;;;;;5011165;28;19905;-70
2023/08/26 08:53:35;;;;;;;;;;;;;;;;;;5011278;28;19909;-71
2023/08/26 08:56:00;;;;;;;;;;;;;;;;;;5011967;28;19968;-70
2023/08/26 08:58:26;;;;;;;;;;;;;;;;;;5012413;28;20436;-71
2023/08/26 09:00:52;;;;;;;;;;;;;;;;;;5013874;28;19921;-70
2023/08/26 09:03:18;;;;;;;;;;;;;;;;;;5044792;22;19921;-70
2023/08/26 09:05:44;;;;;;;;;;;;;;;;;;5014663;28;20047;-70
2023/08/26 09:08:10;;;;;;;;;;;;;;;;;;5013978;28;20005;-71
2023/08/26 09:10:36;;;;;;;;;;;;;;;;;;5014438;28;20296;-71
2023/08/26 09:13:03;;;;;;;;;;;;;;;;;;5014692;28;19906;-70
2023/08/26 09:15:29;;;;;;;;;;;;;;;;;;5014214;28;19959;-72
2023/08/26 09:17:55;;;;;;;;;;;;;;;;;;4995686;28;20289;-72
2023/08/26 09:20:21;;;;;;;;;;;;;;;;;;5014390;28;19928;-70
2023/08/26 09:22:47;;;;;;;;;;;;;;;;;;5013830;28;19909;-70
2023/08/26 09:25:13;;;;;;;;;;;;;;;;;;5014167;28;19913;-70
2023/08/26 09:27:38;;;;;;;;;;;;;;;;;;5013396;28;19906;-71
2023/08/26 09:30:04;;;;;;;;;;;;;;;;;;5014230;28;19905;-70
2023/08/26 09:32:30;;;;;;;;;;;;;;;;;;5013579;28;19909;-70
2023/08/26 09:34:56;;;;;;;;;;;;;;;;;;5013972;28;19909;-70
2023/08/26 09:37:22;;;;;;;;;;;;;;;;;;5013349;28;19912;-71
2023/08/26 09:39:48;;;;;;;;;;;;;;;;;;5012474;28;19913;-70
2023/08/26 09:42:14;;;;;;;;;;;;;;;;;;5014255;28;19944;-69
2023/08/26 09:44:40;;;;;;;;;;;;;;;;;;5014064;28;20274;-71
2023/08/26 09:47:06;;;;;;;;;;;;;;;;;;5013782;28;20380;-72
2023/08/26 09:49:32;;;;;;;;;;;;;;;;;;5013296;28;19910;-71
2023/08/26 09:51:58;;;;;;;;;;;;;;;;;;5012326;28;20266;-70
2023/08/26 09:54:24;;;;;;;;;;;;;;;;;;5013733;28;19960;-71
2023/08/26 09:56:50;;;;;;;;;;;;;;;;;;5013455;28;20292;-69
2023/08/26 09:59:16;;;;;;;;;;;;;;;;;;5013038;28;20432;-70
2023/08/26 10:01:42;;;;;;;;;;;;;;;;;;4995859;28;19961;-70
2023/08/26 10:04:11;;;;;;;;;;;;;;;;;;5013484;28;19924;-70
2023/08/26 10:06:37;;;;;;;;;;;;;;;;;;5013433;28;19906;-71
2023/08/26 10:09:05;;;;;;;;;;;;;;;;;;5011857;28;20430;-70
2023/08/26 10:11:31;;;;;;;;;;;;;;;;;;4995497;28;19944;-70
2023/08/26 10:13:57;;;;;;;;;;;;;;;;;;5013166;28;19905;-71
2023/08/26 10:16:23;;;;;;;;;;;;;;;;;;5013341;28;19988;-72
2023/08/26 10:18:49;;;;;;;;;;;;;;;;;;5011100;28;19917;-72
2023/08/26 10:21:15;;;;;;;;;;;;;;;;;;5012916;28;19914;-73
2023/08/26 10:23:41;;;;;;;;;;;;;;;;;;5013091;28;19905;-70
2023/08/26 10:26:07;;;;;;;;;;;;;;;;;;5013245;28;19911;-72
2023/08/26 10:28:33;;;;;;;;;;;;;;;;;;5012260;28;19905;-71
2023/08/26 10:30:59;;;;;;;;;;;;;;;;;;5012921;28;19912;-70
2023/08/26 10:33:26;;;;;;;;;;;;;;;;;;5010508;28;19967;-72
2023/08/26 10:35:51;;;;;;;;;;;;;;;;;;5013137;28;20304;-71
2023/08/26 10:38:17;;;;;;;;;;;;;;;;;;5012304;28;19905;-71
2023/08/26 10:40:43;;;;;;;;;;;;;;;;;;5012968;28;19960;-72
2023/08/26 10:43:09;;;;;;;;;;;;;;;;;;5012855;28;19906;-73
2023/08/26 10:45:35;;;;;;;;;;;;;;;;;;5012928;28;20423;-71
2023/08/26 10:48:01;;;;;;;;;;;;;;;;;;5012422;28;19912;-71
2023/08/26 10:50:28;;;;;;;;;;;;;;;;;;5013010;28;19928;-71
2023/08/26 10:52:54;;;;;;;;;;;;;;;;;;5013248;28;19905;-71
2023/08/26 10:55:20;;;;;;;;;;;;;;;;;;5013190;28;19910;-71
2023/08/26 10:57:46;;;;;;;;;;;;;;;;;;5012505;28;20296;-71
2023/08/26 11:00:12;;;;;;;;;;;;;;;;;;5012323;28;19963;-71
2023/08/26 11:02:38;;;;;;;;;;;;;;;;;;5012236;28;20428;-69
2023/08/26 11:05:04;;;;;;;;;;;;;;;;;;5012808;28;19906;-71
2023/08/26 11:07:30;;;;;;;;;;;;;;;;;;5012277;28;20392;-73
2023/08/26 11:09:56;;;;;;;;;;;;;;;;;;5012191;28;19909;-70
2023/08/26 11:12:22;;;;;;;;;;;;;;;;;;5012173;28;19909;-70
2023/08/26 11:14:47;;;;;;;;;;;;;;;;;;5012262;28;19916;-71
2023/08/26 11:17:13;;;;;;;;;;;;;;;;;;5011704;28;20364;-72
2023/08/26 11:19:39;;;;;;;;;;;;;;;;;;5011948;28;19905;-72
2023/08/26 11:22:05;;;;;;;;;;;;;;;;;;5011482;28;19913;-73
2023/08/26 11:24:31;;;;;;;;;;;;;;;;;;5011954;28;20392;-72
2023/08/26 11:26:58;;;;;;;;;;;;;;;;;;5011935;28;20392;-72
2023/08/26 11:29:23;;;;;;;;;;;;;;;;;;5010142;28;19996;-72
2023/08/26 11:31:49;;;;;;;;;;;;;;;;;;5011889;28;20051;-72
2023/08/26 11:34:15;;;;;;;;;;;;;;;;;;5011599;28;19913;-72
2023/08/26 11:36:41;;;;;;;;;;;;;;;;;;5011402;28;20303;-70
2023/08/26 11:39:09;;;;;;;;;;;;;;;;;;5011752;28;19912;-71
2023/08/26 11:41:35;;;;;;;;;;;;;;;;;;5011753;28;20008;-70
2023/08/26 11:44:00;;;;;;;;;;;;;;;;;;5010884;28;20545;-71
2023/08/26 11:46:26;;;;;;;;;;;;;;;;;;5011534;28;19995;-70
2023/08/26 11:48:52;;;;;;;;;;;;;;;;;;5011120;28;19959;-70
2023/08/26 11:51:18;;;;;;;;;;;;;;;;;;5011379;28;20000;-69
2023/08/26 11:53:44;;;;;;;;;;;;;;;;;;5011687;28;19936;-71
2023/08/26 11:56:10;;;;;;;;;;;;;;;;;;5011406;28;20332;-71
2023/08/26 11:58:37;;;;;;;;;;;;;;;;;;5010914;28;20377;-71
2023/08/26 12:01:03;;;;;;;;;;;;;;;;;;5011322;28;19905;-70
2023/08/26 12:03:32;;;;;;;;;;;;;;;;;;5011418;28;20398;-71
2023/08/26 12:05:58;;;;;;;;;;;;;;;;;;5011647;28;20289;-72
2023/08/26 12:08:24;;;;;;;;;;;;;;;;;;5010792;28;19914;-71
2023/08/26 12:10:49;;;;;;;;;;;;;;;;;;5011302;28;19912;-72
2023/08/26 12:13:16;;;;;;;;;;;;;;;;;;5011379;28;19909;-71
2023/08/26 12:15:41;;;;;;;;;;;;;;;;;;5011372;28;19988;-70
2023/08/26 12:18:09;;;;;;;;;;;;;;;;;;5010620;28;19999;-70
2023/08/26 12:20:35;;;;;;;;;;;;;;;;;;5011456;28;19905;-70
2023/08/26 12:23:00;;;;;;;;;;;;;;;;;;5011104;28;20000;-69
2023/08/26 12:25:27;;;;;;;;;;;;;;;;;;5011368;28;20391;-70
2023/08/26 12:27:53;;;;;;;;;;;;;;;;;;5010448;28;19912;-70
2023/08/26 12:30:19;;;;;;;;;;;;;;;;;;5010983;28;19902;-71
2023/08/26 12:32:45;;;;;;;;;;;;;;;;;;5011790;28;20004;-70
2023/08/26 12:35:11;;;;;;;;;;;;;;;;;;5015045;28;20432;-71
2023/08/26 12:37:37;;;;;;;;;;;;;;;;;;5014490;28;20004;-71
2023/08/26 12:40:04;;;;;;;;;;;;;;;;;;5015057;28;19905;-70
2023/08/26 12:42:30;;;;;;;;;;;;;;;;;;5014748;28;19905;-71
2023/08/26 12:44:56;;;;;;;;;;;;;;;;;;5014802;28;19913;-71
2023/08/26 12:47:22;;;;;;;;;;;;;;;;;;5014323;28;19913;-71
2023/08/26 12:49:47;;;;;;;;;;;;;;;;;;5014986;28;19909;-71
2023/08/26 12:52:13;;;;;;;;;;;;;;;;;;5014734;28;20392;-69
2023/08/26 12:54:39;;;;;;;;;;;;;;;;;;5014699;28;20000;-70
2023/08/26 12:57:06;;;;;;;;;;;;;;;;;;5014450;28;20020;-69
2023/08/26 12:59:32;;;;;;;;;;;;;;;;;;5014009;28;19906;-70
2023/08/26 13:01:57;;;;;;;;;;;;;;;;;;5014598;28;19916;-70
2023/08/26 13:04:23;;;;;;;;;;;;;;;;;;5014563;28;19945;-70
2023/08/26 13:06:49;;;;;;;;;;;;;;;;;;5014789;28;19937;-71
2023/08/26 13:09:15;;;;;;;;;;;;;;;;;;5013908;28;20000;-72
2023/08/26 13:11:41;;;;;;;;;;;;;;;;;;5014404;28;20004;-72
2023/08/26 13:14:07;;;;;;;;;;;;;;;;;;5014437;28;19935;-71
2023/08/26 13:16:33;;;;;;;;;;;;;;;;;;5014631;28;19910;-71
2023/08/26 13:18:59;;;;;;;;;;;;;;;;;;5013628;28;19905;-72
2023/08/26 13:21:26;;;;;;;;;;;;;;;;;;5014262;28;19916;-72
2023/08/26 13:23:52;;;;;;;;;;;;;;;;;;5014377;28;19905;-70
2023/08/26 13:26:18;;;;;;;;;;;;;;;;;;5014117;28;19911;-74
2023/08/26 13:28:45;;;;;;;;;;;;;;;;;;5013386;28;19909;-71
2023/08/26 13:31:11;;;;;;;;;;;;;;;;;;5014019;28;19905;-70
2023/08/26 13:33:37;;;;;;;;;;;;;;;;;;5014262;28;20381;-70
2023/08/26 13:36:03;;;;;;;;;;;;;;;;;;5014087;28;19935;-70
2023/08/26 13:38:29;;;;;;;;;;;;;;;;;;5013308;28;20387;-70
2023/08/26 13:40:55;;;;;;;;;;;;;;;;;;5013767;28;19912;-70
2023/08/26 13:43:21;;;;;;;;;;;;;;;;;;5012101;28;19909;-73
2023/08/26 13:45:47;;;;;;;;;;;;;;;;;;5014115;28;19924;-70
2023/08/26 13:48:13;;;;;;;;;;;;;;;;;;5013109;28;20412;-71
2023/08/26 13:50:39;;;;;;;;;;;;;;;;;;5013642;28;19905;-71
2023/08/26 13:53:05;;;;;;;;;;;;;;;;;;5013823;28;20326;-70
2023/08/26 13:55:30;;;;;;;;;;;;;;;;;;5013534;28;19910;-71
2023/08/26 13:57:56;;;;;;;;;;;;;;;;;;5012875;28;19905;-73
2023/08/26 14:00:22;;;;;;;;;;;;;;;;;;5013689;28;19909;-71
2023/08/26 14:02:49;;;;;;;;;;;;;;;;;;5013306;28;19921;-71
2023/08/26 14:05:15;;;;;;;;;;;;;;;;;;5013383;28;19975;-71
2023/08/26 14:07:44;;;;;;;;;;;;;;;;;;5012620;28;20020;-71
2023/08/26 14:10:10;;;;;;;;;;;;;;;;;;5013189;28;19911;-71
2023/08/26 14:12:39;;;;;;;;;;;;;;;;;;5013011;28;20372;-71
2023/08/26 14:15:05;;;;;;;;;;;;;;;;;;5013183;28;19909;-71
2023/08/26 14:17:31;;;;;;;;;;;;;;;;;;5012613;28;20680;-69
2023/08/26 14:19:57;;;;;;;;;;;;;;;;;;5013058;28;19906;-70
2023/08/26 14:22:22;;;;;;;;;;;;;;;;;;5012920;28;19937;-70
2023/08/26 14:24:48;;;;;;;;;;;;;;;;;;5013013;28;19928;-70
2023/08/26 14:27:15;;;;;;;;;;;;;;;;;;5012528;28;19963;-70
2023/08/26 14:29:41;;;;;;;;;;;;;;;;;;5012942;28;19912;-71
2023/08/26 14:32:07;;;;;;;;;;;;;;;;;;5012832;28;19905;-71
2023/08/26 14:34:33;;;;;;;;;;;;;;;;;;5012978;28;20328;-69
2023/08/26 14:36:59;;;;;;;;;;;;;;;;;;5012590;28;19906;-69
2023/08/26 14:39:25;;;;;;;;;;;;;;;;;;5012399;28;19916;-70
2023/08/26 14:41:51;;;;;;;;;;;;;;;;;;5013191;28;19905;-72
2023/08/26 14:44:17;;;;;;;;;;;;;;;;;;5012880;28;20365;-69
2023/08/26 14:46:43;;;;;;;;;;;;;;;;;;5012483;28;19909;-70
2023/08/26 14:49:08;;;;;;;;;;;;;;;;;;5012108;28;19959;-71
2023/08/26 14:51:36;;;;;;;;;;;;;;;;;;5012555;28;20376;-72
2023/08/26 14:54:03;;;;;;;;;;;;;;;;;;5012650;28;20675;-71
2023/08/26 14:56:29;;;;;;;;;;;;;;;;;;5011954;28;20277;-71
2023/08/26 14:58:54;;;;;;;;;;;;;;;;;;5011713;28;19916;-71
2023/08/26 15:01:20;;;;;;;;;;;;;;;;;;5012891;28;19905;-72
2023/08/26 15:03:47;;;;;;;;;;;;;;;;;;5012781;28;19913;-73
2023/08/26 15:06:13;;;;;;;;;;;;;;;;;;5012353;28;19992;-71
2023/08/26 15:08:39;;;;;;;;;;;;;;;;;;5011588;28;19992;-70
2023/08/26 15:11:05;;;;;;;;;;;;;;;;;;5012141;28;20373;-71
2023/08/26 15:13:31;;;;;;;;;;;;;;;;;;5012177;28;20010;-73
2023/08/26 15:15:57;;;;;;;;;;;;;;;;;;5012006;28;19909;-73
2023/08/26 15:18:22;;;;;;;;;;;;;;;;;;5011514;28;19912;-73
2023/08/26 15:20:49;;;;;;;;;;;;;;;;;;5011962;28;20000;-72
2023/08/26 15:23:15;;;;;;;;;;;;;;;;;;5011914;28;19997;-72
2023/08/26 15:25:40;;;;;;;;;;;;;;;;;;5012198;28;20353;-72
2023/08/26 15:28:06;;;;;;;;;;;;;;;;;;5011491;28;19945;-70
2023/08/26 15:30:32;;;;;;;;;;;;;;;;;;5012192;28;19951;-70
2023/08/26 15:33:00;;;;;;;;;;;;;;;;;;5012166;28;19912;-70
2023/08/26 15:35:25;;;;;;;;;;;;;;;;;;5011946;28;19999;-71
2023/08/26 15:37:51;;;;;;;;;;;;;;;;;;5011171;28;20384;-70
2023/08/26 15:40:17;;;;;;;;;;;;;;;;;;5011954;28;20423;-74
2023/08/26 15:42:43;;;;;;;;;;;;;;;;;;5011988;28;19905;-72
2023/08/26 15:45:09;;;;;;;;;;;;;;;;;;5011825;28;20068;-70
2023/08/26 15:47:35;;;;;;;;;;;;;;;;;;5011153;28;19963;-71
2023/08/26 15:50:01;;;;;;;;;;;;;;;;;;5011828;28;19941;-71
2023/08/26 15:52:27;;;;;;;;;;;;;;;;;;5012445;28;19996;-70
2023/08/26 15:54:53;;;;;;;;;;;;;;;;;;5012396;28;20387;-71
2023/08/26 15:57:18;;;;;;;;;;;;;;;;;;5011929;28;19916;-69
2023/08/26 15:59:44;;;;;;;;;;;;;;;;;;5012020;28;19921;-72
2023/08/26 16:02:10;;;;;;;;;;;;;;;;;;5011914;28;19905;-71
2023/08/26 16:04:36;;;;;;;;;;;;;;;;;;5011727;28;19913;-72
2023/08/26 16:07:02;;;;;;;;;;;;;;;;;;5013338;28;19914;-72
2023/08/26 16:09:28;;;;;;;;;;;;;;;;;;5016024;28;19906;-73
2023/08/26 16:11:54;;;;;;;;;;;;;;;;;;5015876;28;20365;-72
2023/08/26 16:14:20;;;;;;;;;;;;;;;;;;5016054;28;19905;-71
2023/08/26 16:16:46;;;;;;;;;;;;;;;;;;5015916;28;19917;-71
2023/08/26 16:19:12;;;;;;;;;;;;;;;;;;4997900;28;19955;-71
2023/08/26 16:21:38;;;;;;;;;;;;;;;;;;5017051;28;19944;-71
2023/08/26 16:24:04;;;;;;;;;;;;;;;;;;5017094;28;19912;-71
2023/08/26 16:26:30;;;;;;;;;;;;;;;;;;5015769;28;19972;-70
2023/08/26 16:28:56;;;;;;;;;;;;;;;;;;5014446;28;19909;-70
2023/08/26 16:31:22;;;;;;;;;;;;;;;;;;5015223;28;19912;-70
2023/08/26 16:33:47;;;;;;;;;;;;;;;;;;5015196;28;20314;-70
2023/08/26 16:36:13;;;;;;;;;;;;;;;;;;5015199;28;19910;-70